Time;durP1;ratioP1;P1;durP2;ratioP2;P2;SDS_P1;SDS_P2;PMS_P1;PMS_P2;Temp;Humidity;BMP_temperature;BMP_pressure;BME280_temperature;BME280_humidity;BME280_pressure;Samples;Min_cycle;Max_cycle;Signal;HPM_P1;HPM_P2
2023/05/21 04:01:51;;;;;;;0.60;0.30;;;16.00;99.90;;;;;;5425281;23;20525;-71
2023/05/21 04:04:19;;;;;;;2.40;1.40;;;15.90;99.90;;;;;;4954162;29;20442;-71
2023/05/21 04:06:48;;;;;;;0.80;0.73;;;15.90;99.90;;;;;;4954606;29;20473;-71
2023/05/21 04:09:16;;;;;;;20.37;19.10;;;15.90;99.90;;;;;;4954951;29;20811;-70
2023/05/21 04:11:44;;;;;;;2.70;2.50;;;15.80;99.90;;;;;;4947285;28;20460;-71
2023/05/21 04:14:12;;;;;;;2.00;0.63;;;15.80;99.90;;;;;;4955186;29;20542;-70
2023/05/21 04:16:42;;;;;;;0.70;0.70;;;15.80;99.90;;;;;;4955118;29;20955;-72
2023/05/21 04:19:11;;;;;;;1.57;0.80;;;15.80;99.90;;;;;;4954593;28;20941;-72
2023/05/21 04:21:39;;;;;;;3.70;3.40;;;15.80;99.90;;;;;;4954903;28;20475;-73
2023/05/21 04:24:07;;;;;;;0.60;0.10;;;15.80;99.90;;;;;;4954705;29;20881;-72
2023/05/21 04:26:35;;;;;;;3.60;2.87;;;15.90;99.90;;;;;;4954951;28;20531;-71
2023/05/21 04:29:03;;;;;;;3.90;2.30;;;15.90;99.90;;;;;;4954473;29;20488;-71
2023/05/21 04:31:31;;;;;;;1.30;1.03;;;15.80;99.90;;;;;;4954581;28;20489;-71
2023/05/21 04:33:59;;;;;;;0.63;0.30;;;15.70;99.90;;;;;;4953670;28;20464;-71
2023/05/21 04:36:29;;;;;;;1.47;0.70;;;15.80;99.90;;;;;;4954235;28;20455;-72
2023/05/21 04:38:56;;;;;;;0.67;0.50;;;15.80;99.90;;;;;;4954498;28;20820;-71
2023/05/21 04:41:24;;;;;;;2.43;0.70;;;15.80;99.90;;;;;;4954415;28;20554;-71
2023/05/21 04:43:53;;;;;;;3.50;3.30;;;15.70;99.90;;;;;;4954203;29;20477;-71
2023/05/21 04:46:23;;;;;;;1.03;0.83;;;15.80;99.90;;;;;;4954146;29;20503;-71
2023/05/21 04:48:53;;;;;;;0.90;0.67;;;15.70;99.90;;;;;;4955857;29;20485;-71
2023/05/21 04:51:23;;;;;;;1.47;0.43;;;15.70;99.90;;;;;;4954608;28;20568;-71
2023/05/21 04:53:53;;;;;;;0.70;0.40;;;15.70;99.90;;;;;;4954177;28;20458;-72
2023/05/21 04:56:21;;;;;;;0.70;0.30;;;15.80;99.90;;;;;;4954215;29;20533;-71
2023/05/21 04:58:49;;;;;;;5.80;1.90;;;15.80;99.90;;;;;;4954059;28;20459;-71
2023/05/21 05:01:17;;;;;;;0.60;0.10;;;;;;;;;;4953396;28;20478;-72
2023/05/21 05:03:45;;;;;;;0.60;0.20;;;15.80;99.90;;;;;;4953788;29;20822;-71
2023/05/21 05:06:13;;;;;;;0.97;0.83;;;15.90;99.90;;;;;;4953937;29;20943;-72
2023/05/21 05:08:41;;;;;;;0.73;0.73;;;15.90;99.90;;;;;;4953680;29;20471;-71
2023/05/21 05:11:10;;;;;;;1.20;1.10;;;15.90;99.90;;;;;;4953831;28;20487;-71
2023/05/21 05:13:40;;;;;;;0.80;0.57;;;15.90;99.90;;;;;;4953270;29;20546;-71
2023/05/21 05:16:08;;;;;;;0.60;0.33;;;15.90;99.90;;;;;;4949775;29;20457;-71
2023/05/21 05:18:36;;;;;;;0.60;0.20;;;16.00;99.90;;;;;;4953845;28;20543;-73
2023/05/21 05:21:04;;;;;;;0.60;0.10;;;15.90;99.90;;;;;;4953881;28;20877;-71
2023/05/21 05:23:32;;;;;;;0.60;0.20;;;16.00;99.90;;;;;;4953654;28;20517;-72
2023/05/21 05:26:00;;;;;;;2.30;1.47;;;16.00;99.90;;;;;;4953374;29;20454;-71
2023/05/21 05:28:29;;;;;;;0.60;0.10;;;16.00;99.90;;;;;;4953941;28;20503;-71
2023/05/21 05:30:57;;;;;;;4.37;2.43;;;16.00;99.90;;;;;;4953762;28;20486;-71
2023/05/21 05:33:25;;;;;;;0.60;0.27;;;16.00;99.90;;;;;;4953920;28;20442;-71
2023/05/21 05:35:53;;;;;;;0.90;0.77;;;16.10;99.90;;;;;;4954626;29;20493;-73
2023/05/21 05:38:21;;;;;;;1.43;0.60;;;16.00;99.90;;;;;;4953669;28;20549;-74
2023/05/21 05:40:48;;;;;;;2.13;1.77;;;16.10;99.90;;;;;;4953714;28;20500;-72
2023/05/21 05:43:16;;;;;;;0.60;0.23;;;16.10;99.90;;;;;;4953358;29;20456;-72
2023/05/21 05:45:45;;;;;;;0.60;0.30;;;16.10;99.90;;;;;;4953752;29;20955;-72
2023/05/21 05:48:13;;;;;;;1.80;1.70;;;16.20;99.90;;;;;;4955341;28;20480;-71
2023/05/21 05:50:41;;;;;;;1.33;0.87;;;16.20;99.90;;;;;;4955452;28;20494;-72
2023/05/21 05:53:12;;;;;;;1.30;1.20;;;16.20;99.90;;;;;;4954808;29;20532;-72
2023/05/21 05:55:39;;;;;;;2.83;2.63;;;16.20;99.90;;;;;;4955522;29;20545;-72
2023/05/21 05:58:07;;;;;;;0.70;0.20;;;16.30;99.90;;;;;;4955559;29;20820;-71
2023/05/21 06:00:35;;;;;;;1.10;0.50;;;16.30;99.90;;;;;;4955745;28;20452;-71
2023/05/21 06:03:05;;;;;;;1.23;1.10;;;16.40;99.90;;;;;;4955102;28;21021;-72
2023/05/21 06:05:33;;;;;;;1.63;1.53;;;16.40;99.90;;;;;;4953943;29;20468;-71
2023/05/21 06:08:01;;;;;;;2.67;2.57;;;16.40;99.90;;;;;;4955796;28;20441;-72
2023/05/21 06:10:29;;;;;;;0.70;0.40;;;16.40;99.90;;;;;;4954507;28;20445;-73
2023/05/21 06:12:56;;;;;;;1.00;0.87;;;16.40;99.90;;;;;;4956863;28;20536;-72
2023/05/21 06:15:25;;;;;;;0.60;0.27;;;16.40;99.90;;;;;;4957590;29;20487;-72
2023/05/21 06:17:53;;;;;;;1.20;0.90;;;16.40;99.90;;;;;;4958863;28;20506;-72
2023/05/21 06:20:23;;;;;;;0.60;0.10;;;16.40;99.90;;;;;;4958189;28;20557;-72
2023/05/21 06:22:51;;;;;;;0.83;0.40;;;16.50;99.90;;;;;;4959118;28;20473;-73
2023/05/21 06:25:19;;;;;;;0.60;0.10;;;16.50;99.90;;;;;;4946987;28;20445;-71
2023/05/21 06:27:47;;;;;;;0.60;0.10;;;16.50;99.90;;;;;;4958576;29;20535;-72
2023/05/21 06:30:15;;;;;;;2.20;2.10;;;16.60;99.90;;;;;;4956562;28;20462;-72
2023/05/21 06:32:43;;;;;;;2.00;0.93;;;16.60;99.90;;;;;;4956750;29;20573;-72
2023/05/21 06:35:11;;;;;;;0.60;0.30;;;16.70;99.90;;;;;;4956547;28;20472;-71
2023/05/21 06:37:42;;;;;;;0.80;0.57;;;16.70;99.90;;;;;;4955405;28;20465;-71
2023/05/21 06:40:11;;;;;;;0.60;0.20;;;16.70;99.90;;;;;;4956518;29;20951;-71
2023/05/21 06:42:38;;;;;;;0.90;0.60;;;16.80;99.90;;;;;;4956045;28;20513;-72
2023/05/21 06:45:07;;;;;;;2.03;0.73;;;16.80;99.90;;;;;;4956134;28;20443;-72
2023/05/21 06:47:35;;;;;;;1.00;0.87;;;16.90;99.90;;;;;;4956266;29;20916;-72
2023/05/21 06:50:03;;;;;;;0.90;0.73;;;16.90;99.90;;;;;;4955867;29;20477;-72
2023/05/21 06:52:31;;;;;;;5.93;3.77;;;17.00;99.90;;;;;;4955077;29;20500;-72
2023/05/21 06:55:01;;;;;;;0.83;0.37;;;17.00;99.90;;;;;;4949711;28;20556;-72
2023/05/21 06:57:28;;;;;;;1.40;1.30;;;17.00;99.90;;;;;;4955943;29;20449;-73
2023/05/21 06:59:56;;;;;;;1.17;0.37;;;17.10;99.90;;;;;;4955778;28;20446;-71
2023/05/21 07:02:24;;;;;;;2.00;1.90;;;17.20;99.90;;;;;;4949788;29;20554;-71
2023/05/21 07:04:54;;;;;;;1.33;1.20;;;17.30;99.90;;;;;;4955927;29;20498;-72
2023/05/21 07:07:22;;;;;;;3.50;2.93;;;17.40;99.90;;;;;;4955981;29;20459;-71
2023/05/21 07:09:50;;;;;;;1.37;0.73;;;17.40;99.90;;;;;;4955930;29;20533;-72
2023/05/21 07:12:19;;;;;;;0.73;0.60;;;17.50;99.90;;;;;;4955136;28;21191;-72
2023/05/21 07:14:47;;;;;;;0.70;0.30;;;17.60;99.90;;;;;;4941284;29;20466;-72
2023/05/21 07:17:15;;;;;;;5.03;1.03;;;17.60;99.90;;;;;;4936778;29;20440;-71
2023/05/21 07:19:43;;;;;;;1.07;0.97;;;17.70;99.90;;;;;;4936837;29;20795;-72
2023/05/21 07:22:11;;;;;;;0.87;0.63;;;17.90;99.90;;;;;;4936409;29;20553;-70
2023/05/21 07:24:39;;;;;;;0.60;0.20;;;18.00;99.90;;;;;;4951630;29;20450;-72
2023/05/21 07:27:07;;;;;;;0.60;0.27;;;18.10;99.90;;;;;;4955627;29;20461;-72
2023/05/21 07:29:53;;;;;;;0.60;0.20;;;18.20;99.90;;;;;;4955584;29;20452;-71
2023/05/21 07:32:25;;;;;;;0.60;0.20;;;18.20;99.90;;;;;;4945005;29;20481;-71
2023/05/21 07:34:53;;;;;;;0.60;0.10;;;18.30;99.90;;;;;;4955440;28;20442;-72
2023/05/21 07:37:21;;;;;;;3.27;3.13;;;18.30;99.90;;;;;;4953540;29;20482;-71
2023/05/21 07:39:49;;;;;;;0.60;0.20;;;18.30;99.90;;;;;;4955480;28;20461;-71
2023/05/21 07:42:17;;;;;;;12.93;2.77;;;18.30;99.90;;;;;;4954971;28;20493;-71
2023/05/21 07:44:45;;;;;;;0.60;0.40;;;18.40;99.90;;;;;;4953986;29;20456;-71
2023/05/21 07:47:14;;;;;;;1.07;0.87;;;18.40;99.90;;;;;;4945227;29;20444;-71
2023/05/21 07:49:42;;;;;;;3.80;0.80;;;18.50;99.90;;;;;;4953163;28;20441;-71
2023/05/21 07:52:10;;;;;;;0.60;0.47;;;18.60;99.90;;;;;;4953162;29;20489;-71
2023/05/21 07:54:38;;;;;;;0.60;0.20;;;18.70;99.90;;;;;;4955470;28;20476;-70
2023/05/21 07:57:05;;;;;;;1.00;0.50;;;18.70;99.90;;;;;;4955392;29;20913;-70
2023/05/21 07:59:33;;;;;;;0.60;0.10;;;18.80;99.90;;;;;;4955321;29;20589;-70
2023/05/21 08:02:01;;;;;;;2.30;1.37;;;18.80;99.90;;;;;;4953848;28;21037;-71
2023/05/21 08:04:30;;;;;;;0.70;0.20;;;18.90;99.90;;;;;;4936003;29;20510;-71
2023/05/21 08:06:58;;;;;;;0.60;0.20;;;19.00;99.90;;;;;;4936173;29;20451;-71
2023/05/21 08:09:27;;;;;;;1.27;0.77;;;19.00;99.90;;;;;;4935866;29;20830;-70
2023/05/21 08:11:54;;;;;;;0.60;0.13;;;19.00;99.90;;;;;;4951399;28;20522;-70
2023/05/21 08:14:22;;;;;;;1.00;0.60;;;19.00;99.90;;;;;;4955479;28;20466;-71
2023/05/21 08:16:50;;;;;;;0.60;0.10;;;19.00;99.90;;;;;;4950344;28;20448;-72
2023/05/21 08:19:18;;;;;;;0.93;0.47;;;19.00;99.90;;;;;;4943563;29;20456;-71
2023/05/21 08:21:47;;;;;;;0.60;0.20;;;19.00;99.90;;;;;;4946162;29;20503;-71
2023/05/21 08:24:19;;;;;;;1.70;1.60;;;19.10;99.90;;;;;;4937537;29;20455;-70
2023/05/21 08:26:48;;;;;;;3.43;1.80;;;19.10;99.90;;;;;;4948475;29;20530;-70
2023/05/21 08:29:56;;;;;;;0.60;0.20;;;19.10;99.90;;;;;;4955149;29;20509;-71
2023/05/21 08:32:32;;;;;;;0.70;0.40;;;19.20;99.90;;;;;;4946388;28;20533;-70
2023/05/21 08:35:00;;;;;;;0.70;0.50;;;19.20;99.90;;;;;;4945034;28;20450;-70
2023/05/21 08:37:33;;;;;;;0.60;0.20;;;19.30;99.90;;;;;;4946176;28;20462;-70
2023/05/21 08:40:03;;;;;;;5.97;3.90;;;19.30;99.90;;;;;;4940878;29;20497;-70
2023/05/21 08:42:39;;;;;;;0.60;0.30;;;19.40;99.90;;;;;;4944552;29;20468;-71
2023/05/21 08:45:09;;;;;;;0.60;0.20;;;19.40;99.90;;;;;;4945194;29;20819;-71
2023/05/21 08:47:36;;;;;;;0.60;0.20;;;19.50;99.90;;;;;;4945066;29;20447;-70
2023/05/21 08:50:07;;;;;;;1.20;0.93;;;19.70;99.90;;;;;;4940424;29;20960;-70
2023/05/21 08:52:36;;;;;;;1.13;1.03;;;19.80;99.90;;;;;;4934652;29;20551;-70
2023/05/21 08:55:05;;;;;;;0.80;0.80;;;19.80;99.90;;;;;;4935239;29;20455;-70
2023/05/21 08:57:33;;;;;;;1.37;1.27;;;19.80;99.90;;;;;;4943627;29;20455;-71
2023/05/21 09:00:03;;;;;;;0.60;0.20;;;20.00;99.90;;;;;;4950970;28;20460;-69
2023/05/21 09:02:34;;;;;;;0.60;0.20;;;20.10;99.90;;;;;;4935909;28;21224;-72
2023/05/21 09:05:03;;;;;;;6.63;1.60;;;20.20;99.90;;;;;;4933666;29;20444;-72
2023/05/21 09:07:34;;;;;;;1.20;0.73;;;20.30;99.90;;;;;;4942426;29;20498;-73
2023/05/21 09:10:07;;;;;;;0.60;0.10;;;20.40;99.90;;;;;;4953381;29;20557;-71
2023/05/21 09:12:35;;;;;;;2.77;2.30;;;20.50;99.90;;;;;;4952297;28;20486;-72
2023/05/21 09:15:04;;;;;;;1.53;1.43;;;20.60;99.90;;;;;;4953568;29;20451;-72
2023/05/21 09:17:32;;;;;;;1.53;1.43;;;20.70;99.90;;;;;;4954426;28;20463;-70
2023/05/21 09:20:11;;;;;;;0.60;0.10;;;20.80;99.90;;;;;;4953617;28;20948;-72
2023/05/21 09:22:43;;;;;;;2.30;1.00;;;20.90;99.90;;;;;;4954013;28;20465;-71
2023/05/21 09:25:13;;;;;;;1.60;1.27;;;21.00;99.90;;;;;;4954488;28;20894;-71
2023/05/21 09:27:41;;;;;;;0.70;0.50;;;21.10;99.90;;;;;;4954116;28;21162;-72
2023/05/21 09:30:11;;;;;;;9.63;8.87;;;21.20;99.90;;;;;;4954127;28;20542;-72
2023/05/21 09:32:39;;;;;;;2.00;1.90;;;21.20;99.90;;;;;;4953487;28;20516;-73
2023/05/21 09:35:09;;;;;;;1.90;1.20;;;21.30;99.90;;;;;;4955538;29;20452;-72
2023/05/21 09:37:42;;;;;;;1.77;1.30;;;21.30;99.90;;;;;;4959943;29;20497;-71
2023/05/21 09:40:14;;;;;;;0.67;0.40;;;21.40;99.90;;;;;;4960698;28;20933;-72
2023/05/21 09:42:45;;;;;;;2.20;1.63;;;21.50;99.90;;;;;;4960130;29;20564;-72
2023/05/21 09:45:17;;;;;;;0.63;0.27;;;21.60;99.90;;;;;;4960054;29;20537;-71
2023/05/21 09:47:46;;;;;;;1.67;1.50;;;21.70;99.90;;;;;;4958280;29;20452;-72
2023/05/21 09:50:18;;;;;;;0.60;0.10;;;21.80;99.90;;;;;;4957982;29;20879;-71
2023/05/21 09:52:46;;;;;;;0.60;0.23;;;21.90;99.90;;;;;;4956511;28;20524;-72
2023/05/21 09:55:16;;;;;;;1.70;1.60;;;22.00;99.90;;;;;;4957669;29;20547;-72
2023/05/21 09:57:46;;;;;;;1.00;0.23;;;22.10;99.90;;;;;;4957567;29;20815;-72
2023/05/21 10:00:18;;;;;;;1.10;0.97;;;22.20;99.90;;;;;;4957550;28;20483;-72
2023/05/21 10:02:47;;;;;;;0.60;0.20;;;22.30;99.90;;;;;;4957111;28;20997;-72
2023/05/21 10:05:16;;;;;;;1.00;0.80;;;22.40;99.90;;;;;;4957272;28;20460;-69
2023/05/21 10:07:49;;;;;;;0.70;0.30;;;22.50;99.90;;;;;;4955765;29;20477;-70
2023/05/21 10:10:20;;;;;;;0.90;0.53;;;22.60;99.90;;;;;;4956458;28;21057;-68
2023/05/21 10:12:54;;;;;;;5.13;2.57;;;22.70;99.90;;;;;;4956819;28;20964;-68
2023/05/21 10:15:24;;;;;;;0.60;0.10;;;22.70;99.90;;;;;;4956324;28;20544;-68
2023/05/21 10:17:52;;;;;;;0.60;0.20;;;22.70;99.90;;;;;;4948614;29;20443;-74
2023/05/21 10:20:22;;;;;;;1.50;1.40;;;22.80;99.90;;;;;;4938277;29;20453;-72
2023/05/21 10:22:50;;;;;;;0.60;0.10;;;22.80;99.90;;;;;;4938385;29;20501;-71
2023/05/21 10:25:20;;;;;;;1.17;0.33;;;22.90;99.90;;;;;;4947180;28;20500;-72
2023/05/21 10:27:48;;;;;;;1.23;1.07;;;;;;;;;;4955812;28;20540;-72
2023/05/21 10:30:18;;;;;;;0.70;0.40;;;23.00;99.90;;;;;;4952337;28;21005;-72
2023/05/21 10:32:48;;;;;;;1.23;1.07;;;22.90;99.90;;;;;;4950459;28;20488;-71
2023/05/21 10:35:17;;;;;;;1.50;1.40;;;;;;;;;;4957204;28;20449;-71
2023/05/21 10:37:45;;;;;;;1.63;0.77;;;23.00;99.90;;;;;;4949281;29;20465;-71
2023/05/21 10:40:14;;;;;;;0.97;0.83;;;23.10;99.90;;;;;;4950575;28;20536;-71
2023/05/21 10:43:02;;;;;;;0.60;0.10;;;23.20;99.90;;;;;;4955882;28;20472;-70
2023/05/21 10:45:41;;;;;;;0.60;0.20;;;23.30;99.90;;;;;;4955637;28;20601;-70
2023/05/21 10:48:26;;;;;;;6.03;1.93;;;23.30;99.90;;;;;;4955221;29;20451;-71
2023/05/21 10:51:23;;;;;;;0.90;0.40;;;23.40;92.10;;;;;;4955406;28;20483;-71
2023/05/21 10:54:27;;;;;;;1.50;1.40;;;23.40;87.80;;;;;;4945929;28;20573;-71
2023/05/21 10:57:03;;;;;;;2.70;1.70;;;23.50;77.80;;;;;;4954630;28;20563;-70
2023/05/21 10:59:40;;;;;;;0.70;0.17;;;23.50;73.70;;;;;;4942183;29;20447;-72
2023/05/21 11:02:11;;;;;;;0.87;0.50;;;23.60;69.80;;;;;;4955710;28;20962;-71
2023/05/21 11:04:42;;;;;;;2.00;1.50;;;23.70;66.00;;;;;;4955931;29;21268;-71
2023/05/21 11:07:10;;;;;;;1.23;0.50;;;23.80;79.30;;;;;;4955014;28;20442;-71
2023/05/21 11:09:38;;;;;;;0.70;0.17;;;23.90;52.10;;;;;;4954066;28;20445;-71
2023/05/21 11:12:08;;;;;;;1.00;0.40;;;24.00;48.90;;;;;;4954115;28;21013;-72
2023/05/21 11:14:39;;;;;;;2.33;0.87;;;24.00;43.30;;;;;;4954886;28;20570;-71
2023/05/21 11:17:16;;;;;;;1.00;0.80;;;24.00;44.40;;;;;;4953748;28;20472;-72
2023/05/21 11:19:46;;;;;;;0.70;0.10;;;24.20;45.50;;;;;;4955694;28;20500;-72
2023/05/21 11:22:26;;;;;;;0.70;0.20;;;24.20;44.50;;;;;;4956720;28;20560;-72
2023/05/21 11:25:02;;;;;;;0.70;0.10;;;24.30;43.00;;;;;;4956136;29;20456;-72
2023/05/21 11:27:33;;;;;;;3.57;3.10;;;24.40;41.90;;;;;;4956095;29;20452;-72
2023/05/21 11:30:07;;;;;;;0.80;0.40;;;24.50;40.90;;;;;;4958830;28;20438;-73
2023/05/21 11:32:40;;;;;;;0.90;0.30;;;;;;;;;;4955718;28;20477;-72
2023/05/21 11:35:08;;;;;;;0.70;0.20;;;24.50;36.60;;;;;;4957475;29;20512;-73
2023/05/21 11:37:39;;;;;;;0.70;0.17;;;;;;;;;;4956297;28;20494;-73
2023/05/21 11:40:22;;;;;;;0.70;0.10;;;24.50;36.90;;;;;;4963341;28;20477;-71
2023/05/21 11:42:54;;;;;;;0.70;0.10;;;24.70;38.50;;;;;;4956650;28;20500;-71
2023/05/21 11:45:30;;;;;;;0.70;0.20;;;24.80;39.10;;;;;;4956431;28;20561;-74
2023/05/21 11:47:59;;;;;;;0.70;0.10;;;24.90;37.50;;;;;;4955645;28;20480;-73
2023/05/21 11:50:29;;;;;;;3.03;1.80;;;24.90;40.30;;;;;;4955130;28;20517;-70
2023/05/21 11:52:59;;;;;;;0.70;0.20;;;25.00;37.20;;;;;;4952914;28;20463;-73
2023/05/21 11:55:27;;;;;;;0.70;0.20;;;;;;;;;;4956443;29;20485;-74
2023/05/21 11:57:55;;;;;;;0.70;0.10;;;25.20;37.00;;;;;;4957013;28;20521;-72
2023/05/21 12:00:25;;;;;;;1.40;1.30;;;;;;;;;;4955280;29;20553;-72
2023/05/21 12:02:54;;;;;;;0.80;0.50;;;;;;;;;;4955614;28;21029;-73
2023/05/21 12:05:23;;;;;;;1.37;1.17;;;;;;;;;;4955847;29;20443;-73
2023/05/21 12:07:53;;;;;;;1.53;0.30;;;;;;;;;;4954251;29;20524;-72
2023/05/21 12:10:22;;;;;;;1.67;1.43;;;25.20;34.90;;;;;;4955560;28;20447;-73
2023/05/21 12:12:51;;;;;;;1.33;1.23;;;25.20;35.40;;;;;;4955212;28;20466;-72
2023/05/21 12:15:26;;;;;;;0.70;0.20;;;25.40;34.80;;;;;;4954947;28;20499;-73
2023/05/21 12:17:55;;;;;;;0.70;0.20;;;25.40;34.90;;;;;;4955398;28;21010;-74
2023/05/21 12:20:26;;;;;;;1.13;0.60;;;25.50;30.80;;;;;;4954361;28;20505;-72
2023/05/21 12:22:54;;;;;;;0.70;0.23;;;25.60;29.80;;;;;;4954330;29;20488;-72
2023/05/21 12:25:22;;;;;;;0.70;0.20;;;;;;;;;;4944092;29;20529;-74
2023/05/21 12:27:56;;;;;;;0.90;0.20;;;;;;;;;;4955269;28;20446;-73
2023/05/21 12:30:26;;;;;;;0.70;0.30;;;25.80;29.60;;;;;;4955777;29;20613;-73
2023/05/21 12:32:58;;;;;;;0.70;0.20;;;25.90;28.70;;;;;;4955058;28;20486;-72
2023/05/21 12:35:26;;;;;;;0.70;0.10;;;26.00;26.10;;;;;;4955557;29;20570;-73
2023/05/21 12:37:54;;;;;;;0.70;0.20;;;;;;;;;;4955529;29;20514;-72
2023/05/21 12:40:22;;;;;;;0.70;0.40;;;;;;;;;;4954923;28;20478;-72
2023/05/21 12:42:59;;;;;;;0.70;0.20;;;;;;;;;;4954867;28;20467;-74
2023/05/21 12:45:35;;;;;;;0.70;0.20;;;26.20;22.60;;;;;;4956070;28;20485;-74
2023/05/21 12:48:06;;;;;;;0.80;0.43;;;26.30;21.10;;;;;;4955645;28;20452;-74
2023/05/21 12:50:35;;;;;;;0.90;0.50;;;26.30;15.90;;;;;;4955028;28;20463;-74
2023/05/21 12:53:03;;;;;;;0.70;0.10;;;;;;;;;;4955471;28;20443;-72
2023/05/21 12:55:32;;;;;;;1.03;0.93;;;;;;;;;;4955238;29;20565;-76
2023/05/21 12:58:03;;;;;;;0.80;0.20;;;26.40;3.30;;;;;;4953984;28;20486;-73
2023/05/21 13:00:33;;;;;;;0.70;0.10;;;26.50;1.20;;;;;;4951813;28;20465;-74
2023/05/21 13:03:04;;;;;;;0.70;0.30;;;26.60;1.00;;;;;;4952753;29;20449;-73
2023/05/21 13:05:33;;;;;;;0.73;0.20;;;;;;;;;;4954047;29;20530;-73
2023/05/21 13:08:01;;;;;;;0.70;0.20;;;26.70;1.00;;;;;;4954504;29;20446;-73
2023/05/21 13:10:30;;;;;;;1.00;0.57;;;;;;;;;;4955233;28;20431;-72
2023/05/21 13:12:57;;;;;;;1.37;0.70;;;26.70;1.00;;;;;;4954721;28;20526;-73
2023/05/21 13:15:25;;;;;;;3.33;2.63;;;26.90;1.00;;;;;;4955959;29;20521;-73
2023/05/21 13:17:55;;;;;;;0.80;0.47;;;26.90;1.00;;;;;;4955235;28;20485;-74
2023/05/21 13:20:26;;;;;;;0.70;0.20;;;;;;;;;;4955627;28;20453;-72
2023/05/21 13:22:54;;;;;;;0.70;0.10;;;;;;;;;;4954187;28;20454;-73
2023/05/21 13:25:27;;;;;;;1.13;1.03;;;27.20;1.00;;;;;;4957506;29;20541;-72
2023/05/21 13:27:55;;;;;;;1.47;1.37;;;27.30;1.00;;;;;;4952781;29;20527;-71
2023/05/21 13:30:23;;;;;;;0.70;0.20;;;;;;;;;;4943226;29;20819;-72
2023/05/21 13:32:51;;;;;;;0.70;0.10;;;27.30;1.00;;;;;;4959919;28;21004;-74
2023/05/21 13:35:21;;;;;;;1.63;0.30;;;27.30;1.00;;;;;;4956555;29;20474;-74
2023/05/21 13:37:49;;;;;;;0.70;0.20;;;27.30;1.00;;;;;;4957028;29;20457;-73
2023/05/21 13:40:17;;;;;;;2.63;1.00;;;27.30;1.00;;;;;;4955604;29;20456;-74
2023/05/21 13:42:47;;;;;;;0.70;0.10;;;27.40;1.00;;;;;;4953825;28;20562;-72
2023/05/21 13:45:17;;;;;;;0.70;0.10;;;27.30;1.00;;;;;;4954076;28;20439;-72
2023/05/21 13:47:45;;;;;;;0.70;0.30;;;27.40;1.00;;;;;;4954112;29;20629;-75
2023/05/21 13:50:14;;;;;;;1.07;0.83;;;27.40;1.00;;;;;;4954363;28;20927;-72
2023/05/21 13:52:43;;;;;;;0.70;0.20;;;27.30;1.00;;;;;;4951245;28;20463;-73
2023/05/21 13:55:11;;;;;;;0.70;0.20;;;27.30;1.00;;;;;;4946849;28;20542;-73
2023/05/21 13:57:39;;;;;;;0.70;0.20;;;27.50;1.00;;;;;;4949377;28;20514;-73
2023/05/21 14:00:11;;;;;;;0.70;0.10;;;27.60;1.00;;;;;;4946474;29;20455;-72
2023/05/21 14:02:39;;;;;;;0.70;0.10;;;27.60;1.00;;;;;;4950111;28;20470;-73
2023/05/21 14:05:07;;;;;;;1.00;0.67;;;27.60;1.00;;;;;;4945813;29;20435;-72
2023/05/21 14:07:36;;;;;;;0.70;0.40;;;27.60;1.00;;;;;;4953482;28;20447;-73
2023/05/21 14:10:06;;;;;;;0.80;0.63;;;27.60;1.00;;;;;;4946028;29;20442;-72
2023/05/21 14:12:34;;;;;;;0.70;0.20;;;27.50;1.00;;;;;;4946426;28;20526;-72
2023/05/21 14:15:02;;;;;;;0.70;0.20;;;27.50;1.00;;;;;;4947360;29;20500;-73
2023/05/21 14:17:30;;;;;;;0.70;0.20;;;27.40;1.00;;;;;;4955313;29;20571;-74
2023/05/21 14:19:58;;;;;;;0.70;0.30;;;27.40;1.00;;;;;;4946693;28;20444;-74
2023/05/21 14:22:26;;;;;;;0.70;0.30;;;27.50;1.00;;;;;;4948752;28;20839;-73
2023/05/21 14:24:54;;;;;;;1.27;0.87;;;27.30;1.00;;;;;;4953806;29;20952;-72
2023/05/21 14:27:24;;;;;;;1.30;0.90;;;27.20;1.00;;;;;;4952382;29;20455;-72
2023/05/21 14:29:52;;;;;;;0.70;0.10;;;27.20;1.00;;;;;;4954018;29;20461;-73
2023/05/21 14:32:20;;;;;;;0.70;0.17;;;;;;;;;;4952968;28;20474;-73
2023/05/21 14:34:48;;;;;;;1.73;1.33;;;27.20;1.00;;;;;;4954534;29;20526;-73
2023/05/21 14:37:16;;;;;;;0.80;0.50;;;27.10;1.00;;;;;;4951303;28;20561;-73
2023/05/21 14:39:44;;;;;;;2.10;1.50;;;;;;;;;;4949220;29;20435;-73
2023/05/21 14:42:12;;;;;;;0.80;0.40;;;27.00;1.00;;;;;;4955443;29;20604;-76
2023/05/21 14:44:42;;;;;;;0.70;0.20;;;27.00;1.00;;;;;;4955978;28;20475;-72
2023/05/21 14:47:10;;;;;;;0.70;0.20;;;27.10;1.00;;;;;;4957824;28;20454;-74
2023/05/21 14:49:38;;;;;;;0.70;0.30;;;;;;;;;;4956882;29;20474;-75
2023/05/21 14:52:07;;;;;;;0.70;0.10;;;;;;;;;;4957156;28;20557;-73
2023/05/21 14:54:35;;;;;;;0.70;0.20;;;27.40;1.00;;;;;;4957584;29;20454;-73
2023/05/21 14:57:03;;;;;;;0.70;0.10;;;27.40;1.00;;;;;;4956864;28;21066;-72
2023/05/21 14:59:31;;;;;;;0.70;0.30;;;;;;;;;;4957539;28;20457;-72
2023/05/21 15:02:01;;;;;;;0.70;0.10;;;27.40;1.00;;;;;;4950267;29;20483;-72
2023/05/21 15:04:29;;;;;;;0.70;0.30;;;27.40;1.00;;;;;;4950382;29;20474;-75
2023/05/21 15:06:57;;;;;;;1.00;0.87;;;27.40;1.00;;;;;;4943917;29;20530;-72
2023/05/21 15:09:25;;;;;;;1.50;1.40;;;;;;;;;;4950595;29;20452;-75
2023/05/21 15:11:53;;;;;;;1.50;1.13;;;;;;;;;;4954294;28;20945;-74
2023/05/21 15:14:21;;;;;;;0.70;0.10;;;;;;;;;;4948861;29;20538;-73
2023/05/21 15:16:49;;;;;;;0.70;0.10;;;27.40;1.00;;;;;;4943094;29;20483;-73
2023/05/21 15:19:19;;;;;;;0.70;0.17;;;27.50;1.00;;;;;;4947745;29;20470;-73
2023/05/21 15:21:46;;;;;;;0.70;0.20;;;27.50;1.00;;;;;;4951729;28;21026;-73
2023/05/21 15:24:14;;;;;;;0.70;0.20;;;27.50;1.00;;;;;;4944495;29;20506;-72
2023/05/21 15:26:43;;;;;;;0.70;0.10;;;27.50;1.00;;;;;;4950396;29;20447;-72
2023/05/21 15:29:11;;;;;;;0.70;0.20;;;;;;;;;;4950229;28;20804;-71
2023/05/21 15:31:39;;;;;;;0.70;0.10;;;27.60;1.00;;;;;;4952371;29;20471;-73
2023/05/21 15:34:07;;;;;;;0.70;0.10;;;27.50;1.00;;;;;;4955388;29;20450;-72
2023/05/21 15:36:36;;;;;;;0.70;0.20;;;27.40;1.00;;;;;;4955887;29;20471;-71
2023/05/21 15:39:04;;;;;;;0.70;0.10;;;27.40;1.00;;;;;;4955368;29;20489;-74
2023/05/21 15:41:37;;;;;;;0.70;0.20;;;27.30;1.00;;;;;;4940652;29;20802;-71
2023/05/21 15:44:05;;;;;;;0.70;0.20;;;27.30;1.00;;;;;;4947840;28;20529;-72
2023/05/21 15:46:33;;;;;;;0.70;0.10;;;27.30;1.00;;;;;;4943621;29;20459;-74
2023/05/21 15:49:01;;;;;;;0.70;0.10;;;;;;;;;;4953749;28;20494;-72
2023/05/21 15:51:29;;;;;;;4.20;0.67;;;27.30;1.00;;;;;;4955418;28;20501;-73
2023/05/21 15:53:58;;;;;;;0.70;0.30;;;27.30;1.00;;;;;;4955798;29;20450;-69
2023/05/21 15:56:26;;;;;;;0.70;0.20;;;27.40;1.00;;;;;;4954746;28;20844;-72
2023/05/21 15:58:57;;;;;;;1.17;1.07;;;;;;;;;;4956217;28;20473;-69
2023/05/21 16:01:25;;;;;;;0.90;0.67;;;27.60;1.00;;;;;;4954270;28;20510;-70
2023/05/21 16:03:54;;;;;;;0.70;0.10;;;27.60;1.00;;;;;;4954673;29;20530;-71
2023/05/21 16:06:22;;;;;;;0.70;0.20;;;27.80;1.00;;;;;;4953342;28;20464;-71
2023/05/21 16:08:49;;;;;;;0.70;0.10;;;27.90;1.00;;;;;;4950639;28;20533;-70
2023/05/21 16:11:19;;;;;;;0.80;0.53;;;27.90;1.00;;;;;;4953789;28;20506;-70
2023/05/21 16:13:46;;;;;;;0.70;0.10;;;28.00;1.00;;;;;;4953760;29;21116;-70
2023/05/21 16:16:14;;;;;;;0.70;0.20;;;28.00;1.00;;;;;;4954710;29;20490;-71
2023/05/21 16:18:42;;;;;;;10.03;3.33;;;28.10;1.00;;;;;;4954894;29;20451;-70
2023/05/21 16:21:10;;;;;;;0.70;0.20;;;28.20;1.00;;;;;;4954155;28;20512;-68
2023/05/21 16:23:38;;;;;;;0.70;0.10;;;28.20;1.00;;;;;;4976087;23;20528;-66
2023/05/21 16:26:07;;;;;;;0.70;0.10;;;28.20;1.00;;;;;;4973859;28;20442;-67
2023/05/21 16:28:37;;;;;;;0.70;0.10;;;28.30;1.00;;;;;;4973787;28;20445;-67
2023/05/21 16:31:07;;;;;;;0.70;0.20;;;28.30;1.00;;;;;;4974267;28;20450;-66
2023/05/21 16:33:35;;;;;;;0.70;0.10;;;28.40;1.00;;;;;;4963642;28;20475;-67
2023/05/21 16:36:03;;;;;;;0.70;0.20;;;28.40;1.00;;;;;;4953077;29;20423;-69
2023/05/21 16:38:31;;;;;;;0.70;0.20;;;28.40;1.00;;;;;;4953477;29;20446;-68
2023/05/21 16:40:59;;;;;;;0.70;0.20;;;28.40;1.00;;;;;;4954302;29;20513;-68
2023/05/21 16:43:27;;;;;;;0.70;0.20;;;28.50;1.00;;;;;;4955327;28;20551;-67
2023/05/21 16:45:56;;;;;;;0.70;0.10;;;28.60;1.00;;;;;;4961130;29;20458;-67
2023/05/21 16:48:24;;;;;;;0.70;0.30;;;28.70;1.00;;;;;;4955435;29;20444;-69
2023/05/21 16:50:52;;;;;;;0.70;0.20;;;28.80;1.00;;;;;;4955258;29;20477;-68
2023/05/21 16:53:20;;;;;;;0.70;0.10;;;28.80;1.00;;;;;;4955737;28;20492;-67
2023/05/21 16:55:48;;;;;;;0.70;0.20;;;28.80;1.00;;;;;;4955600;28;20450;-66
2023/05/21 16:58:16;;;;;;;0.70;0.10;;;29.00;1.00;;;;;;4957911;29;20496;-67
2023/05/21 17:00:44;;;;;;;0.70;0.20;;;29.00;1.00;;;;;;4956575;29;20555;-68
2023/05/21 17:03:13;;;;;;;0.80;0.33;;;29.10;1.00;;;;;;4958350;28;20503;-68
2023/05/21 17:05:42;;;;;;;0.70;0.10;;;29.10;1.00;;;;;;4972673;28;20444;-67
2023/05/21 17:08:10;;;;;;;0.70;0.20;;;29.00;1.00;;;;;;4958780;28;20929;-68
2023/05/21 17:10:38;;;;;;;0.70;0.20;;;29.00;1.00;;;;;;4949855;29;20492;-65
2023/05/21 17:13:05;;;;;;;0.70;0.10;;;28.90;1.00;;;;;;4953760;28;20511;-67